Apache, Oklahoma
Current Conditions -  °F | °C
As of 4:58 AM on Friday 24 Oct 2014 (Local Time) from KFSI Reporting Station
Clear Clear  
Wind Chill: 59°   Ceiling: Unl
Heat Index: 59°   Visibility: 10mi
Dew Point: 57°   Wind: 0mph
Humidity: 91%   Direction: NA
Pressure: 30.07"   Gusts: NA
Location:  34.89°N, 98.37°W
Report Text: KFSI 240958Z AUTO 00000KT 10SM CLR 15/14 A3007 RMK AO2 SLP177 T01510137
Loading
Personal Weather Stations






























Interactive Weather Map
Tropical Storm Tracking
New forecast layout! Learn more

10-Day Weather Forecast

Advertisements
Track Severe Weather on mobile